Time;durP1;ratioP1;P1;durP2;ratioP2;P2;SDS_P1;SDS_P2;PMS_P1;PMS_P2;Temp;Humidity;BMP_temperature;BMP_pressure;BME280_temperature;BME280_humidity;BME280_pressure;Samples;Min_cycle;Max_cycle;Signal;HPM_P1;HPM_P2
2021/05/21 00:01:02;;;;;;;3.33;1.48;;;13.10;99.90;;;;;;4953332;28;20449;-81
2021/05/21 00:03:29;;;;;;;3.00;1.40;;;13.00;99.90;;;;;;4953974;29;20430;-81
2021/05/21 00:05:55;;;;;;;5.00;1.90;;;13.60;99.90;;;;;;4953401;28;20609;-80
2021/05/21 00:08:22;;;;;;;2.80;1.40;;;13.10;99.90;;;;;;4953790;28;20425;-81
2021/05/21 00:10:48;;;;;;;6.28;1.48;;;13.40;99.90;;;;;;4956255;29;20429;-81
2021/05/21 00:13:15;;;;;;;2.50;1.38;;;13.00;99.90;;;;;;4957221;28;20496;-81
2021/05/21 00:15:41;;;;;;;5.03;1.80;;;13.00;99.90;;;;;;4957674;29;20418;-80
2021/05/21 00:18:08;;;;;;;2.20;1.30;;;13.10;99.90;;;;;;4958945;29;20434;-81
2021/05/21 00:20:34;;;;;;;4.03;1.50;;;13.40;99.90;;;;;;4964580;29;20453;-81
2021/05/21 00:23:00;;;;;;;3.65;1.60;;;13.60;99.90;;;;;;4959120;29;20928;-81
2021/05/21 00:25:27;;;;;;;3.00;1.30;;;13.00;99.90;;;;;;4957169;29;20422;-81
2021/05/21 00:27:53;;;;;;;6.50;1.90;;;13.10;99.90;;;;;;4956870;29;20433;-81
2021/05/21 00:30:20;;;;;;;3.42;1.42;;;13.40;99.90;;;;;;4957279;28;20476;-81
2021/05/21 00:32:46;;;;;;;3.83;1.40;;;13.10;99.90;;;;;;4957164;28;20422;-80
2021/05/21 00:35:13;;;;;;;3.00;1.42;;;13.10;99.90;;;;;;4956940;29;20433;-80
2021/05/21 00:37:40;;;;;;;2.80;1.55;;;12.90;99.90;;;;;;4938144;29;20434;-81
2021/05/21 00:40:07;;;;;;;5.65;1.73;;;13.20;99.90;;;;;;4955204;29;20473;-81
2021/05/21 00:42:35;;;;;;;2.42;1.20;;;13.00;99.90;;;;;;4957125;28;20509;-81
2021/05/21 00:45:01;;;;;;;3.85;1.40;;;13.20;99.90;;;;;;4957512;29;20417;-81
2021/05/21 00:47:29;;;;;;;4.47;1.40;;;12.90;99.90;;;;;;4958989;29;20433;-80
2021/05/21 00:49:55;;;;;;;2.80;1.30;;;13.10;99.90;;;;;;4963158;28;20426;-80
2021/05/21 00:52:24;;;;;;;4.30;1.67;;;13.50;99.90;;;;;;4967455;28;20815;-81
2021/05/21 00:54:51;;;;;;;2.50;1.30;;;12.70;99.90;;;;;;4964694;29;20429;-81
2021/05/21 00:57:17;;;;;;;3.80;1.40;;;12.80;99.90;;;;;;4962181;28;20417;-80
2021/05/21 00:59:45;;;;;;;3.63;1.50;;;13.20;99.90;;;;;;4956492;29;20439;-81
2021/05/21 01:02:12;;;;;;;5.40;1.30;;;12.70;99.90;;;;;;4956244;28;20429;-81
2021/05/21 01:04:39;;;;;;;3.20;1.30;;;12.60;99.90;;;;;;4956189;29;20429;-81
2021/05/21 01:07:06;;;;;;;2.50;1.20;;;12.60;99.90;;;;;;4956257;29;20918;-81
2021/05/21 01:09:33;;;;;;;3.40;1.30;;;12.60;99.90;;;;;;4956312;29;20437;-80
2021/05/21 01:11:59;;;;;;;3.38;1.60;;;12.60;99.90;;;;;;4956370;29;20449;-80
2021/05/21 01:14:26;;;;;;;3.80;1.65;;;12.60;99.90;;;;;;4956410;29;20426;-81
2021/05/21 01:16:53;;;;;;;3.75;1.25;;;12.60;99.90;;;;;;4956367;29;20518;-80
2021/05/21 01:19:19;;;;;;;3.20;1.40;;;12.80;99.90;;;;;;4956105;28;20426;-80
2021/05/21 01:21:46;;;;;;;3.78;1.40;;;12.80;99.90;;;;;;4956044;28;20429;-81
2021/05/21 01:24:13;;;;;;;2.92;1.27;;;12.90;99.90;;;;;;4956115;29;20437;-81
2021/05/21 01:26:39;;;;;;;2.55;1.48;;;13.00;99.90;;;;;;4956249;29;20434;-81
2021/05/21 01:29:06;;;;;;;2.40;1.38;;;12.60;99.90;;;;;;4956140;29;20489;-81
2021/05/21 01:31:32;;;;;;;2.33;1.20;;;12.50;99.90;;;;;;4955836;29;20429;-80
2021/05/21 01:33:59;;;;;;;4.07;2.00;;;12.90;99.90;;;;;;4955897;29;20932;-80
2021/05/21 01:36:25;;;;;;;3.10;1.40;;;12.40;99.90;;;;;;4955958;29;20440;-82
2021/05/21 01:38:58;;;;;;;2.60;1.30;;;13.20;99.90;;;;;;4955910;29;20426;-80
2021/05/21 01:41:25;;;;;;;3.80;1.40;;;12.60;99.90;;;;;;4955797;29;20445;-80
2021/05/21 01:43:52;;;;;;;2.80;1.60;;;12.60;99.90;;;;;;4955867;29;20430;-80
2021/05/21 01:46:20;;;;;;;2.50;1.30;;;12.50;99.90;;;;;;4955704;29;20432;-80
2021/05/21 01:48:47;;;;;;;2.50;1.30;;;12.70;99.90;;;;;;4955301;29;20432;-81
2021/05/21 01:51:13;;;;;;;2.70;1.20;;;13.20;99.90;;;;;;4955708;28;20795;-80
2021/05/21 01:53:40;;;;;;;5.20;2.00;;;12.60;99.90;;;;;;4955427;29;20433;-81
2021/05/21 01:56:07;;;;;;;3.92;1.20;;;12.60;99.90;;;;;;4955700;28;20470;-80
2021/05/21 01:58:34;;;;;;;3.00;1.50;;;12.50;99.90;;;;;;4955346;29;20434;-81
2021/05/21 02:01:00;;;;;;;3.00;1.60;;;12.80;99.90;;;;;;4955195;29;20445;-80
2021/05/21 02:03:28;;;;;;;3.20;1.40;;;12.50;99.90;;;;;;4955483;29;20867;-80
2021/05/21 02:05:54;;;;;;;3.50;1.50;;;12.60;99.90;;;;;;4955693;29;20441;-80
2021/05/21 02:08:22;;;;;;;3.70;1.60;;;12.90;99.90;;;;;;4955830;28;20422;-80
2021/05/21 02:10:49;;;;;;;3.17;1.30;;;12.40;99.90;;;;;;4955187;29;20493;-80
2021/05/21 02:13:16;;;;;;;3.10;1.60;;;12.40;99.90;;;;;;4955499;28;20463;-80
2021/05/21 02:15:42;;;;;;;5.40;1.40;;;12.40;99.90;;;;;;4955237;28;20426;-81
2021/05/21 02:18:09;;;;;;;2.78;1.63;;;12.80;99.90;;;;;;4955103;29;20434;-81
2021/05/21 02:20:35;;;;;;;3.10;1.40;;;12.40;99.90;;;;;;4955016;29;20446;-81
2021/05/21 02:23:03;;;;;;;4.97;1.60;;;12.50;99.90;;;;;;4955168;28;20512;-81
2021/05/21 02:25:29;;;;;;;4.40;1.60;;;12.40;99.90;;;;;;4948020;29;20430;-81
2021/05/21 02:27:55;;;;;;;3.30;1.45;;;12.30;99.90;;;;;;4955175;29;20425;-80
2021/05/21 02:30:23;;;;;;;2.50;1.30;;;12.70;99.90;;;;;;4954598;28;20529;-81
2021/05/21 02:32:49;;;;;;;2.28;1.48;;;12.60;99.90;;;;;;4954498;28;20434;-81
2021/05/21 02:35:15;;;;;;;3.58;1.20;;;12.50;99.90;;;;;;4954923;28;20433;-80
2021/05/21 02:37:42;;;;;;;2.75;1.45;;;12.60;99.90;;;;;;4954887;29;20449;-81
2021/05/21 02:40:10;;;;;;;3.75;1.40;;;12.40;99.90;;;;;;4954289;29;20449;-80
2021/05/21 02:42:37;;;;;;;3.80;1.70;;;12.40;99.90;;;;;;4955027;28;20426;-80
2021/05/21 02:45:05;;;;;;;2.40;1.42;;;12.40;99.90;;;;;;4954517;29;20830;-81
2021/05/21 02:47:32;;;;;;;2.85;1.45;;;12.30;99.90;;;;;;4954996;28;20421;-81
2021/05/21 02:49:59;;;;;;;4.80;1.50;;;12.10;99.90;;;;;;4954593;29;20806;-81
2021/05/21 02:52:26;;;;;;;4.70;1.48;;;12.20;99.90;;;;;;4957917;29;20426;-80
2021/05/21 02:54:52;;;;;;;2.77;1.40;;;12.00;99.90;;;;;;4954197;28;20440;-80
2021/05/21 02:57:21;;;;;;;2.55;1.30;;;12.20;99.90;;;;;;4956886;28;20842;-81
2021/05/21 02:59:47;;;;;;;2.90;1.53;;;11.90;99.90;;;;;;4960977;28;20909;-81
2021/05/21 03:02:14;;;;;;;3.28;1.58;;;12.10;99.90;;;;;;4956151;29;20433;-80
2021/05/21 03:04:41;;;;;;;5.00;1.80;;;12.00;99.90;;;;;;4953880;29;21094;-81
2021/05/21 03:07:07;;;;;;;4.60;1.33;;;11.90;99.90;;;;;;4954323;29;20444;-81
2021/05/21 03:09:33;;;;;;;4.25;1.50;;;12.20;99.90;;;;;;4954062;29;20426;-81
2021/05/21 03:11:59;;;;;;;3.90;1.60;;;12.20;99.90;;;;;;4954413;29;20425;-80
2021/05/21 03:14:25;;;;;;;3.00;1.60;;;12.10;99.90;;;;;;4954132;29;20437;-80
2021/05/21 03:16:52;;;;;;;3.70;1.75;;;12.10;99.90;;;;;;4954592;29;20418;-81
2021/05/21 03:19:18;;;;;;;3.10;1.23;;;12.10;99.90;;;;;;4953634;29;20947;-81
2021/05/21 03:21:45;;;;;;;2.80;1.35;;;12.30;99.90;;;;;;4954229;29;20445;-80
2021/05/21 03:24:12;;;;;;;3.17;1.30;;;12.30;99.90;;;;;;4953733;29;20794;-81
2021/05/21 03:26:38;;;;;;;2.80;1.42;;;12.00;99.90;;;;;;4954079;29;20418;-81
2021/05/21 03:29:04;;;;;;;2.60;1.30;;;12.20;99.90;;;;;;4953614;29;20934;-81
2021/05/21 03:31:31;;;;;;;3.58;1.80;;;12.00;99.90;;;;;;4954114;28;20433;-80
2021/05/21 03:33:57;;;;;;;5.97;1.80;;;12.70;99.90;;;;;;4953347;29;20426;-80
2021/05/21 03:36:23;;;;;;;3.35;1.90;;;12.30;99.90;;;;;;4954014;29;20428;-81
2021/05/21 03:38:50;;;;;;;4.40;1.63;;;12.40;99.90;;;;;;4953407;29;20436;-81
2021/05/21 03:41:17;;;;;;;3.10;1.40;;;12.20;99.90;;;;;;4953783;28;20441;-80
2021/05/21 03:43:43;;;;;;;3.50;1.60;;;12.30;99.90;;;;;;4952901;28;20425;-81
2021/05/21 03:46:09;;;;;;;2.72;1.40;;;12.50;99.90;;;;;;4954139;28;20422;-81
2021/05/21 03:48:35;;;;;;;2.85;1.50;;;12.30;99.90;;;;;;4953486;29;20447;-80
2021/05/21 03:51:02;;;;;;;4.80;2.00;;;12.50;99.90;;;;;;4954174;29;20422;-81
2021/05/21 03:53:28;;;;;;;3.00;1.80;;;12.20;99.90;;;;;;4954005;29;20429;-81
2021/05/21 03:55:55;;;;;;;2.78;1.40;;;12.20;99.90;;;;;;4954900;28;20452;-80
2021/05/21 03:58:21;;;;;;;5.00;1.70;;;12.40;99.90;;;;;;4962525;29;20486;-80
2021/05/21 04:00:48;;;;;;;3.35;1.55;;;12.90;99.90;;;;;;4962734;29;20433;-80
2021/05/21 04:03:14;;;;;;;3.63;1.63;;;12.30;99.90;;;;;;4955471;28;20480;-80
2021/05/21 04:05:41;;;;;;;3.40;2.20;;;12.50;99.90;;;;;;4953847;29;20508;-81
2021/05/21 04:08:07;;;;;;;5.20;1.30;;;12.30;99.90;;;;;;4953551;29;20429;-81
2021/05/21 04:10:35;;;;;;;5.25;1.85;;;12.70;99.90;;;;;;4954696;29;20461;-81
2021/05/21 04:13:03;;;;;;;4.05;1.52;;;12.50;99.90;;;;;;4954167;29;20436;-81
2021/05/21 04:15:29;;;;;;;3.45;1.30;;;12.70;99.90;;;;;;4955622;28;20917;-81
2021/05/21 04:17:55;;;;;;;6.10;2.00;;;12.70;99.90;;;;;;4956715;29;20491;-81
2021/05/21 04:20:22;;;;;;;3.40;1.50;;;12.60;99.90;;;;;;4953374;28;20441;-80
2021/05/21 04:22:48;;;;;;;7.60;2.30;;;13.50;99.90;;;;;;4953563;29;20922;-81
2021/05/21 04:25:14;;;;;;;3.25;1.55;;;11.70;99.90;;;;;;4953348;29;20429;-81
2021/05/21 04:27:40;;;;;;;4.00;1.73;;;13.30;99.90;;;;;;4953399;28;20894;-81
2021/05/21 04:30:08;;;;;;;4.00;1.60;;;12.80;99.90;;;;;;4953664;29;20524;-81
2021/05/21 04:32:34;;;;;;;5.10;1.50;;;12.80;99.90;;;;;;4953513;29;20461;-81
2021/05/21 04:35:01;;;;;;;2.42;1.33;;;12.80;99.90;;;;;;4953199;29;20426;-80
2021/05/21 04:37:27;;;;;;;3.47;1.60;;;12.70;99.90;;;;;;4953353;29;20433;-81
2021/05/21 04:39:53;;;;;;;6.28;2.20;;;12.80;99.90;;;;;;4952812;29;20448;-81
2021/05/21 04:42:20;;;;;;;4.45;2.28;;;12.90;99.90;;;;;;4953098;28;20430;-81
2021/05/21 04:44:46;;;;;;;3.67;1.50;;;12.80;99.90;;;;;;4952818;29;20948;-81
2021/05/21 04:47:13;;;;;;;3.10;1.48;;;13.00;99.90;;;;;;4953455;28;20433;-81
2021/05/21 04:49:39;;;;;;;3.60;1.60;;;13.10;99.90;;;;;;4952855;29;20430;-83
2021/05/21 04:52:07;;;;;;;7.50;2.30;;;13.60;99.90;;;;;;4956150;28;20501;-83
2021/05/21 04:54:34;;;;;;;3.30;1.58;;;13.30;99.90;;;;;;4949015;28;20443;-83
2021/05/21 04:57:00;;;;;;;3.80;1.20;;;13.50;99.90;;;;;;4957048;29;20493;-83
2021/05/21 04:59:27;;;;;;;2.90;1.60;;;13.50;99.90;;;;;;4960026;28;20450;-83
2021/05/21 05:01:53;;;;;;;3.50;1.60;;;14.30;99.90;;;;;;4957126;29;20445;-83
2021/05/21 05:04:20;;;;;;;5.68;1.60;;;13.70;99.90;;;;;;4956796;29;20430;-83
2021/05/21 05:06:47;;;;;;;3.50;1.67;;;14.70;99.90;;;;;;4958032;29;20446;-83
2021/05/21 05:09:14;;;;;;;3.78;1.58;;;14.60;99.90;;;;;;4957839;29;20425;-84
2021/05/21 05:11:41;;;;;;;4.60;1.60;;;13.40;99.90;;;;;;4957787;29;20434;-84
2021/05/21 05:14:08;;;;;;;4.97;2.38;;;13.60;99.90;;;;;;4956472;29;20429;-83
2021/05/21 05:16:35;;;;;;;3.70;1.50;;;13.80;99.90;;;;;;4958151;29;20582;-84
2021/05/21 05:19:01;;;;;;;4.28;1.73;;;14.60;99.90;;;;;;4954710;29;20433;-83
2021/05/21 05:21:31;;;;;;;4.70;2.00;;;14.00;99.90;;;;;;4945719;29;20531;-83
2021/05/21 05:23:58;;;;;;;5.40;2.20;;;14.50;99.90;;;;;;4955991;29;20422;-83
2021/05/21 05:26:25;;;;;;;3.20;1.70;;;14.00;99.90;;;;;;4956387;29;20434;-84
2021/05/21 05:28:51;;;;;;;3.90;2.00;;;13.50;99.90;;;;;;4954829;28;20920;-83
2021/05/21 05:31:19;;;;;;;3.20;1.30;;;14.30;99.90;;;;;;4971500;28;20423;-83
2021/05/21 05:33:45;;;;;;;5.45;1.60;;;13.80;99.90;;;;;;4966914;28;20455;-82
2021/05/21 05:36:12;;;;;;;2.85;1.30;;;14.70;99.90;;;;;;4976437;28;20515;-84
2021/05/21 05:38:39;;;;;;;5.07;1.75;;;14.00;99.90;;;;;;4980753;28;20428;-86
2021/05/21 05:41:06;;;;;;;5.80;2.03;;;14.20;99.90;;;;;;4973249;28;20452;-84
2021/05/21 05:43:32;;;;;;;4.22;1.95;;;13.90;99.90;;;;;;4960467;28;20495;-82
2021/05/21 05:45:58;;;;;;;4.25;1.38;;;14.40;99.90;;;;;;4969597;28;20428;-82
2021/05/21 05:48:25;;;;;;;5.38;2.10;;;13.90;99.90;;;;;;4973878;28;20774;-83
2021/05/21 05:50:52;;;;;;;4.80;1.77;;;14.50;99.90;;;;;;4963147;28;20897;-83
2021/05/21 05:53:19;;;;;;;5.38;1.73;;;14.10;99.90;;;;;;4964568;28;20431;-83
2021/05/21 05:55:46;;;;;;;3.83;1.80;;;14.20;99.90;;;;;;4962753;28;20488;-83
2021/05/21 05:58:13;;;;;;;3.95;1.77;;;14.50;99.90;;;;;;4955252;29;20928;-85
2021/05/21 06:00:39;;;;;;;5.40;2.13;;;14.40;99.90;;;;;;4965600;28;20816;-83
2021/05/21 06:03:07;;;;;;;4.10;1.80;;;14.00;99.90;;;;;;4975477;28;20433;-83
2021/05/21 06:05:34;;;;;;;3.08;1.50;;;14.30;99.90;;;;;;4965492;28;20509;-82
2021/05/21 06:08:02;;;;;;;4.85;1.70;;;14.00;99.90;;;;;;4954743;28;20434;-84
2021/05/21 06:10:29;;;;;;;4.10;1.40;;;14.20;99.90;;;;;;4963402;28;20456;-84
2021/05/21 06:13:01;;;;;;;4.82;2.10;;;14.70;99.90;;;;;;4975613;28;20424;-84
2021/05/21 06:15:27;;;;;;;3.00;1.50;;;14.50;99.90;;;;;;4967459;28;20433;-84
2021/05/21 06:17:54;;;;;;;4.07;1.33;;;14.20;99.90;;;;;;4956170;28;20426;-84
2021/05/21 06:20:21;;;;;;;3.00;1.60;;;14.90;99.90;;;;;;4973151;28;20912;-86
2021/05/21 06:22:47;;;;;;;5.97;1.92;;;14.70;99.90;;;;;;4969452;28;20434;-84
2021/05/21 06:25:16;;;;;;;3.38;1.65;;;13.90;99.90;;;;;;4957319;29;20476;-84
2021/05/21 06:27:42;;;;;;;4.50;2.17;;;14.30;99.90;;;;;;4966274;28;20432;-84
2021/05/21 06:30:12;;;;;;;5.10;2.30;;;14.90;99.90;;;;;;4960315;28;20422;-85
2021/05/21 06:32:38;;;;;;;3.80;1.80;;;14.50;99.90;;;;;;4974188;28;20436;-85
2021/05/21 06:35:06;;;;;;;8.18;2.20;;;14.30;99.90;;;;;;4977463;28;20434;-85
2021/05/21 06:37:33;;;;;;;4.00;2.58;;;14.40;99.90;;;;;;4975710;28;20424;-84
2021/05/21 06:39:59;;;;;;;4.10;2.13;;;14.40;99.90;;;;;;4972780;28;20440;-83
2021/05/21 06:42:25;;;;;;;5.95;2.50;;;14.20;99.90;;;;;;4955567;29;20422;-84
2021/05/21 06:44:51;;;;;;;4.20;2.10;;;14.50;99.90;;;;;;4966437;28;20950;-84
2021/05/21 06:47:19;;;;;;;9.30;3.00;;;14.30;99.90;;;;;;4974433;28;20432;-84
2021/05/21 06:49:47;;;;;;;6.07;2.23;;;14.70;99.90;;;;;;4972968;28;20484;-84
2021/05/21 06:52:14;;;;;;;4.07;1.67;;;14.60;99.90;;;;;;4976379;28;20888;-84
2021/05/21 06:54:41;;;;;;;3.60;1.90;;;14.50;99.90;;;;;;4972773;28;20444;-84
2021/05/21 06:57:12;;;;;;;4.32;2.10;;;14.50;99.90;;;;;;4984589;28;20431;-85
2021/05/21 06:59:38;;;;;;;5.18;2.00;;;14.30;99.90;;;;;;4981797;28;20440;-85
2021/05/21 07:02:04;;;;;;;5.90;2.10;;;14.70;99.90;;;;;;4972668;28;20980;-88
2021/05/21 07:04:32;;;;;;;5.22;2.20;;;14.80;99.90;;;;;;4968919;28;20500;-84
2021/05/21 07:06:58;;;;;;;5.05;1.88;;;15.00;99.90;;;;;;4969259;28;20448;-84
2021/05/21 07:09:24;;;;;;;5.20;2.17;;;15.20;99.90;;;;;;4966685;28;20429;-83
2021/05/21 07:11:50;;;;;;;5.50;2.80;;;15.20;99.90;;;;;;4962192;28;20525;-86
2021/05/21 07:14:17;;;;;;;3.53;1.58;;;14.20;99.90;;;;;;4971430;28;20448;-84
2021/05/21 07:16:43;;;;;;;6.32;2.47;;;14.40;99.90;;;;;;4956787;28;20948;-83
2021/05/21 07:19:13;;;;;;;5.10;1.88;;;14.20;99.90;;;;;;4969211;28;20437;-83
2021/05/21 07:21:40;;;;;;;3.58;1.73;;;14.50;99.90;;;;;;4969092;28;20443;-83
2021/05/21 07:24:08;;;;;;;6.75;2.30;;;14.70;99.90;;;;;;4960415;28;20426;-84
2021/05/21 07:26:34;;;;;;;7.20;2.22;;;14.30;99.90;;;;;;4961268;28;20431;-83
2021/05/21 07:29:00;;;;;;;8.13;3.33;;;14.90;99.90;;;;;;4968878;28;20428;-83
2021/05/21 07:31:27;;;;;;;4.85;2.40;;;15.00;99.90;;;;;;4972598;28;20432;-84
2021/05/21 07:33:54;;;;;;;5.50;1.87;;;15.00;99.90;;;;;;4973290;28;20431;-84
2021/05/21 07:36:20;;;;;;;5.60;2.10;;;14.70;99.90;;;;;;4973406;28;20443;-83
2021/05/21 07:38:47;;;;;;;7.03;1.80;;;14.80;99.90;;;;;;4973167;28;20428;-83
2021/05/21 07:41:14;;;;;;;5.97;2.40;;;14.70;99.90;;;;;;4973669;28;20443;-81
2021/05/21 07:43:41;;;;;;;6.60;2.28;;;14.70;99.90;;;;;;4965927;28;20467;-84
2021/05/21 07:46:08;;;;;;;8.40;2.42;;;14.70;99.90;;;;;;4955230;28;20952;-85
2021/05/21 07:48:34;;;;;;;5.90;2.30;;;15.20;99.90;;;;;;4965603;28;20511;-84
2021/05/21 07:51:02;;;;;;;5.47;2.80;;;14.60;99.90;;;;;;4970416;28;20439;-85
2021/05/21 07:53:31;;;;;;;6.00;2.40;;;13.60;99.90;;;;;;4971270;28;20436;-83
2021/05/21 07:55:58;;;;;;;6.07;2.25;;;14.40;99.90;;;;;;4971476;28;20431;-84
2021/05/21 07:58:25;;;;;;;5.90;2.80;;;14.80;99.90;;;;;;4969366;28;20438;-86
2021/05/21 08:00:52;;;;;;;8.30;2.17;;;14.50;99.90;;;;;;4968192;28;20774;-85
2021/05/21 08:03:19;;;;;;;5.57;2.40;;;14.30;99.90;;;;;;4973751;28;20419;-85
2021/05/21 08:05:45;;;;;;;7.30;3.17;;;14.60;99.90;;;;;;4971921;28;20432;-85
2021/05/21 08:08:11;;;;;;;8.32;2.50;;;14.00;99.90;;;;;;4974739;28;20424;-89
2021/05/21 08:10:37;;;;;;;8.00;2.47;;;14.80;99.90;;;;;;4961299;28;20438;-83
2021/05/21 08:13:04;;;;;;;7.40;2.80;;;14.20;99.90;;;;;;4967346;28;20435;-84
2021/05/21 08:15:31;;;;;;;9.60;2.50;;;13.80;99.90;;;;;;4966196;28;20804;-90
2021/05/21 08:17:57;;;;;;;7.05;3.40;;;14.70;99.90;;;;;;4971568;28;20495;-85
2021/05/21 08:20:24;;;;;;;8.88;3.20;;;14.70;99.90;;;;;;4968991;28;20448;-86
2021/05/21 08:22:50;;;;;;;7.97;2.85;;;14.40;99.90;;;;;;4972784;28;20424;-87
2021/05/21 08:25:17;;;;;;;7.10;2.70;;;14.40;99.90;;;;;;4957507;28;20484;-86
2021/05/21 08:27:43;;;;;;;10.75;3.15;;;14.30;99.90;;;;;;4957633;29;20434;-83
2021/05/21 08:30:12;;;;;;;9.88;3.25;;;14.70;99.90;;;;;;4955238;28;20910;-84
2021/05/21 08:32:38;;;;;;;8.10;2.90;;;13.90;99.90;;;;;;4959223;29;20449;-89
2021/05/21 08:35:06;;;;;;;6.97;2.38;;;14.90;99.90;;;;;;4972947;28;20828;-92
2021/05/21 08:37:34;;;;;;;12.05;3.28;;;;;;;;;;4960470;29;20898;-94
2021/05/21 08:40:04;;;;;;;8.82;2.88;;;;;;;;;;4966051;28;20470;-94
2021/05/21 08:42:37;;;;;;;9.32;2.80;;;14.00;99.90;;;;;;4971568;28;20512;-88
2021/05/21 08:45:04;;;;;;;6.90;2.50;;;14.30;99.90;;;;;;4976574;28;20483;-90
2021/05/21 08:47:36;;;;;;;7.85;3.05;;;14.30;99.90;;;;;;4986698;28;20444;-93
2021/05/21 08:50:05;;;;;;;8.88;2.90;;;14.10;99.90;;;;;;4983366;28;20912;-94
2021/05/21 08:52:34;;;;;;;9.85;3.28;;;14.30;99.90;;;;;;4975253;28;20413;-93
2021/05/21 08:55:05;;;;;;;6.00;2.90;;;14.90;99.90;;;;;;4984820;28;20427;-93
2021/05/21 08:57:32;;;;;;;6.85;2.50;;;14.70;99.90;;;;;;4985715;28;20470;-88
2021/05/21 09:00:00;;;;;;;10.83;4.10;;;14.70;99.90;;;;;;4982044;28;20804;-91
2021/05/21 09:02:33;;;;;;;7.10;2.30;;;15.60;99.90;;;;;;4983470;28;20424;-91
2021/05/21 09:05:02;;;;;;;8.40;2.20;;;15.10;99.90;;;;;;4981779;28;20865;-92
2021/05/21 09:07:34;;;;;;;9.02;2.75;;;15.30;99.90;;;;;;4984243;28;20436;-93
2021/05/21 09:10:07;;;;;;;6.40;2.45;;;15.90;99.90;;;;;;4984772;28;20444;-96
2021/05/21 09:12:43;;;;;;;6.30;2.60;;;15.30;99.90;;;;;;4984677;28;20836;-95
2021/05/21 09:15:20;;;;;;;8.20;3.10;;;15.10;99.90;;;;;;4989054;28;20492;-94
2021/05/21 09:17:53;;;;;;;11.90;3.42;;;15.80;99.90;;;;;;4968320;28;20973;-88
2021/05/21 09:20:29;;;;;;;10.25;2.90;;;15.60;99.90;;;;;;4966637;28;20433;-93
2021/05/21 09:23:00;;;;;;;8.30;2.35;;;15.50;99.90;;;;;;4968900;28;20424;-88
2021/05/21 09:25:37;;;;;;;8.95;2.70;;;15.80;99.90;;;;;;4979130;28;20824;-88
2021/05/21 09:28:05;;;;;;;7.32;2.80;;;16.60;99.90;;;;;;4964611;28;20430;-88
2021/05/21 09:30:31;;;;;;;8.02;2.78;;;16.60;99.90;;;;;;4977542;28;20439;-89
2021/05/21 09:33:06;;;;;;;10.18;2.38;;;16.00;99.90;;;;;;4966895;28;20428;-84
2021/05/21 09:35:34;;;;;;;9.00;3.60;;;16.20;99.90;;;;;;4982176;28;20427;-89
2021/05/21 09:38:00;;;;;;;8.60;2.95;;;16.30;99.90;;;;;;4980428;28;20438;-89
2021/05/21 09:40:28;;;;;;;11.60;3.22;;;16.30;99.90;;;;;;4979455;28;20519;-89
2021/05/21 09:42:57;;;;;;;6.35;2.55;;;16.20;99.90;;;;;;4974241;28;20479;-93
2021/05/21 09:45:32;;;;;;;9.73;2.90;;;15.70;99.90;;;;;;4968474;28;20434;-88
2021/05/21 09:48:01;;;;;;;8.60;3.30;;;15.60;99.90;;;;;;4980073;28;20780;-92
2021/05/21 09:50:48;;;;;;;6.68;2.67;;;15.80;99.90;;;;;;4987120;28;20435;-89
2021/05/21 09:53:16;;;;;;;8.18;2.70;;;15.70;99.90;;;;;;4982910;28;20460;-91
2021/05/21 09:55:45;;;;;;;7.97;3.10;;;15.90;99.90;;;;;;4983953;28;20527;-91
2021/05/21 09:58:25;;;;;;;7.97;3.30;;;15.80;99.90;;;;;;4980775;28;20461;-94
2021/05/21 10:01:08;;;;;;;8.10;3.08;;;16.30;99.90;;;;;;4965483;29;20492;-93
2021/05/21 10:03:36;;;;;;;7.38;2.42;;;16.20;99.90;;;;;;4995154;28;20471;-88
2021/05/21 10:06:04;;;;;;;6.70;2.30;;;16.30;99.90;;;;;;4979705;28;20434;-90
2021/05/21 10:08:31;;;;;;;5.90;2.70;;;16.00;99.90;;;;;;4971325;29;20434;-93
2021/05/21 10:10:58;;;;;;;6.97;3.70;;;16.00;99.90;;;;;;4983168;28;20503;-93
2021/05/21 10:13:25;;;;;;;9.20;2.50;;;15.70;99.90;;;;;;4979913;28;20523;-91
2021/05/21 10:15:52;;;;;;;9.75;3.50;;;17.00;99.90;;;;;;4966920;28;20437;-89
2021/05/21 10:18:18;;;;;;;7.70;3.00;;;16.00;99.90;;;;;;4977636;28;20495;-91
2021/05/21 10:20:46;;;;;;;10.52;3.10;;;16.20;99.90;;;;;;4967475;28;20488;-87
2021/05/21 10:23:18;;;;;;;9.55;3.20;;;16.50;99.90;;;;;;4958110;28;20434;-89
2021/05/21 10:25:45;;;;;;;8.35;2.70;;;16.20;99.90;;;;;;4966961;28;20439;-87
2021/05/21 10:28:13;;;;;;;8.80;2.63;;;16.30;99.90;;;;;;4956065;28;20489;-87
2021/05/21 10:30:39;;;;;;;10.80;3.15;;;17.00;99.90;;;;;;4965087;28;20908;-87
2021/05/21 10:33:31;;;;;;;13.57;3.20;;;16.60;99.90;;;;;;4974734;28;20432;-85
2021/05/21 10:36:26;;;;;;;9.32;2.88;;;17.50;99.90;;;;;;4962950;28;20430;-85
2021/05/21 10:39:04;;;;;;;7.18;2.90;;;15.90;99.90;;;;;;4955480;28;20790;-84
2021/05/21 10:41:30;;;;;;;;;;;16.40;99.90;;;;;;4971802;28;20042;-90
2021/05/21 10:43:58;;;;;;;;;;;16.00;99.90;;;;;;4966467;28;19995;-85
2021/05/21 10:46:25;;;;;;;;;;;16.00;99.90;;;;;;4958807;28;19980;-86
2021/05/21 10:48:53;;;;;;;;;;;16.10;99.90;;;;;;4967705;28;19926;-87
2021/05/21 10:51:20;;;;;;;;;;;16.00;99.90;;;;;;4961627;28;19922;-87
2021/05/21 10:53:47;;;;;;;;;;;16.00;99.90;;;;;;4978436;28;19922;-87
2021/05/21 10:56:14;;;;;;;;;;;16.00;99.90;;;;;;4968980;28;19922;-88
2021/05/21 10:58:44;;;;;;;;;;;16.10;99.90;;;;;;4970784;28;19923;-89
2021/05/21 11:01:12;;;;;;;;;;;16.40;99.90;;;;;;4963447;28;20247;-89
2021/05/21 11:03:57;;;;;;;;;;;16.50;99.90;;;;;;4969531;28;19933;-85
2021/05/21 11:06:23;;;;;;;;;;;16.40;99.90;;;;;;4976598;28;19929;-88
2021/05/21 11:08:49;;;;;;;;;;;16.40;99.90;;;;;;4973996;28;19922;-87
2021/05/21 11:11:16;;;;;;;;;;;16.40;99.90;;;;;;4975728;28;19922;-85
2021/05/21 11:13:43;;;;;;;;;;;16.60;99.90;;;;;;4978371;28;19922;-91
2021/05/21 11:16:11;;;;;;;;;;;16.70;99.90;;;;;;4981485;28;19922;-94
2021/05/21 11:18:46;;;;;;;;;;;17.00;99.90;;;;;;4991717;28;19922;-94
2021/05/21 11:21:17;;;;;;;;;;;17.00;99.90;;;;;;4993939;28;20088;-89
2021/05/21 11:24:02;;;;;;;;;;;16.90;99.90;;;;;;4988113;28;19949;-92
2021/05/21 11:26:30;;;;;;;;;;;16.90;99.90;;;;;;4981454;28;19922;-95
2021/05/21 11:28:57;;;;;;;;;;;17.30;99.90;;;;;;4976277;28;19977;-89
2021/05/21 11:31:23;;;;;;;;;;;17.00;99.90;;;;;;4964540;28;20013;-93
2021/05/21 11:33:51;;;;;;;;;;;17.40;99.90;;;;;;4966375;28;19921;-90
2021/05/21 11:36:18;;;;;;;;;;;17.40;99.90;;;;;;4978574;28;19926;-94
2021/05/21 11:38:44;;;;;;;;;;;17.60;99.90;;;;;;4968170;28;19930;-87
2021/05/21 11:41:11;;;;;;;;;;;18.00;99.90;;;;;;4978842;28;19983;-87
2021/05/21 11:43:40;;;;;;;;;;;18.20;99.90;;;;;;4966955;28;19922;-88
2021/05/21 11:46:12;;;;;;;;;;;18.60;99.90;;;;;;4967056;28;19973;-88
2021/05/21 11:48:39;;;;;;;;;;;18.90;99.90;;;;;;4970172;28;20008;-93
2021/05/21 11:51:09;;;;;;;;;;;19.20;99.90;;;;;;4996619;28;19910;-86
2021/05/21 11:53:47;;;;;;;6.50;2.22;;;18.70;99.90;;;;;;4986821;28;20428;-88
2021/05/21 11:56:14;;;;;;;8.73;3.40;;;18.90;99.90;;;;;;4994698;28;20434;-91
2021/05/21 11:58:42;;;;;;;9.13;3.00;;;19.50;99.90;;;;;;4976896;28;20511;-96
2021/05/21 12:01:08;;;;;;;5.93;2.20;;;19.90;99.90;;;;;;4977873;28;20495;-93
2021/05/21 12:03:39;;;;;;;5.70;2.20;;;19.50;99.90;;;;;;4970968;28;20461;-88
2021/05/21 12:06:07;;;;;;;6.53;2.28;;;;;;;;;;4975597;28;20499;-93
2021/05/21 12:08:33;;;;;;;7.72;2.35;;;19.60;99.90;;;;;;4979378;28;20426;-93
2021/05/21 12:11:01;;;;;;;10.33;2.70;;;22.50;99.90;;;;;;4982204;28;20470;-90
2021/05/21 12:13:29;;;;;;;7.30;2.50;;;19.20;99.90;;;;;;4982450;28;20428;-91
2021/05/21 12:16:09;;;;;;;8.00;2.70;;;;;;;;;;4970419;28;20433;-91
2021/05/21 12:18:38;;;;;;;10.18;3.10;;;;;;;;;;4961197;28;20446;-91
2021/05/21 12:21:06;;;;;;;7.38;2.30;;;17.60;99.90;;;;;;4964677;28;20459;-92
2021/05/21 12:23:38;;;;;;;8.95;2.88;;;18.30;99.90;;;;;;4983553;28;20450;-93
2021/05/21 12:26:06;;;;;;;6.93;2.63;;;17.90;99.90;;;;;;4980015;28;20481;-88
2021/05/21 12:28:39;;;;;;;9.70;2.90;;;;;;;;;;4963227;28;20428;-95
2021/05/21 12:33:57;;;;;;;6.03;2.08;;;18.80;99.90;;;;;;4968705;28;20494;-93
2021/05/21 12:36:25;;;;;;;8.75;3.50;;;19.30;99.90;;;;;;4979102;28;20434;-89
2021/05/21 12:38:53;;;;;;;5.88;2.35;;;19.80;99.90;;;;;;4970310;28;20457;-88
2021/05/21 12:41:27;;;;;;;15.43;3.97;;;20.10;99.90;;;;;;4962931;28;20777;-88
2021/05/21 12:43:53;;;;;;;6.90;2.80;;;19.90;99.90;;;;;;4975422;28;20514;-87
2021/05/21 12:46:21;;;;;;;12.25;3.00;;;18.90;99.90;;;;;;4962321;28;20444;-84
2021/05/21 12:48:51;;;;;;;8.35;3.08;;;19.10;99.90;;;;;;4958969;28;20432;-89
2021/05/21 12:51:20;;;;;;;10.98;2.78;;;19.30;99.90;;;;;;4969794;28;20966;-89
2021/05/21 12:53:50;;;;;;;6.38;2.83;;;20.00;99.90;;;;;;4979383;28;20567;-88
2021/05/21 12:56:30;;;;;;;10.07;2.58;;;19.60;99.90;;;;;;4971578;28;20495;-87
2021/05/21 12:59:03;;;;;;;9.27;2.90;;;19.20;99.90;;;;;;4957831;28;20593;-88
2021/05/21 13:01:32;;;;;;;5.93;2.40;;;19.40;99.90;;;;;;4972630;28;20443;-92